| time (UTC) | temp C | wind direction | speed KPH | gust KPH | rain 1hr cm | rain 24hr cm | rain mn cm | humidity % | barometer mb |
| 20260507033440 | 8 | 288 | 0.0 | 0.0 | 0.00 | 0.00 | 0.00 | 64 | 1008.6 |
| 20260507031940 | 8 | 288 | 0.0 | 0.0 | 0.00 | 0.00 | 0.00 | 64 | 1008.5 |
| 20260507025940 | 9 | 288 | 0.0 | 0.0 | 0.00 | 0.00 | 0.00 | 64 | 1008.2 |
| 20260507025440 | 10 | 288 | 1.6 | 3.2 | 0.00 | 0.00 | 0.00 | 64 | 1008.1 |
| 20260507024940 | 10 | 288 | 1.6 | 3.2 | 0.00 | 0.00 | 0.00 | 63 | 1008.0 |
| 20260507024440 | 10 | 288 | 3.2 | 3.2 | 0.00 | 0.00 | 0.00 | 64 | 1008.0 |
| 20260507021942 | 10 | 288 | 3.2 | 6.4 | 0.00 | 0.00 | 0.00 | 65 | 1008.1 |
| 20260507020440 | 10 | 278 | 4.8 | 6.4 | 0.00 | 0.00 | 0.00 | 65 | 1007.9 |
| 20260507015940 | 10 | 278 | 8.0 | 9.7 | 0.00 | 0.00 | 0.00 | 65 | 1007.8 |
| 20260507015440 | 10 | 278 | 4.8 | 12.9 | 0.00 | 0.00 | 0.00 | 65 | 1007.6 |
| 20260507013940 | 10 | 286 | 6.4 | 9.7 | 0.00 | 0.00 | 0.00 | 64 | 1007.4 |
| 20260507013440 | 10 | 290 | 8.0 | 9.7 | 0.00 | 0.00 | 0.00 | 64 | 1007.5 |
| 20260507012440 | 11 | 290 | 6.4 | 9.7 | 0.00 | 0.00 | 0.00 | 64 | 1007.4 |
| 20260507011940 | 11 | 290 | 6.4 | 9.7 | 0.00 | 0.00 | 0.00 | 64 | 1007.4 |
| 20260507011440 | 11 | 291 | 8.0 | 9.7 | 0.00 | 0.00 | 0.00 | 64 | 1007.4 |
| 20260507010940 | 11 | 292 | 9.7 | 11.3 | 0.00 | 0.00 | 0.00 | 64 | 1007.3 |
| 20260507010440 | 11 | 288 | 9.7 | 12.9 | 0.00 | 0.00 | 0.00 | 65 | 1007.2 |
| 20260507005940 | 11 | 289 | 8.0 | 12.9 | 0.00 | 0.00 | 0.00 | 65 | 1007.1 |
| 20260507005440 | 11 | 284 | 9.7 | 14.5 | 0.00 | 0.00 | 0.00 | 65 | 1007.1 |
| 20260507004440 | 11 | 296 | 8.0 | 11.3 | 0.00 | 0.00 | 0.00 | 65 | 1006.9 |
| 20260507003440 | 11 | 304 | 11.3 | 16.1 | 0.00 | 0.00 | 0.00 | 66 | 1006.5 |
| 20260507001940 | 11 | 296 | 9.7 | 16.1 | 0.00 | 0.00 | 0.00 | 64 | 1006.7 |
| 20260507001440 | 11 | 293 | 9.7 | 11.3 | 0.00 | 0.00 | 0.00 | 63 | 1006.8 |
| 20260507000940 | 11 | 288 | 9.7 | 12.9 | 0.00 | 0.00 | 0.00 | 64 | 1006.8 |
| 20260507000442 | 11 | 288 | 9.7 | 12.9 | 0.00 | 0.00 | 0.00 | 64 | 1006.8 |
| 20260506234445 | 11 | 298 | 8.0 | 9.7 | 0.00 | 0.00 | 0.00 | 64 | 1006.6 |
| 20260506230940 | 11 | 330 | 9.7 | 11.3 | 0.00 | 0.00 | 0.00 | 63 | 1005.8 |
| 20260506224440 | 12 | 318 | 9.7 | 14.5 | 0.00 | 0.00 | 0.00 | 63 | 1005.3 |
| 20260506223940 | 12 | 312 | 14.5 | 17.7 | 0.00 | 0.00 | 0.00 | 63 | 1005.3 |
| 20260506223440 | 13 | 300 | 14.5 | 20.9 | 0.00 | 0.00 | 0.00 | 63 | 1005.4 |
| 20260506222940 | 13 | 309 | 20.9 | 24.1 | 0.00 | 0.00 | 0.00 | 62 | 1005.2 |
| 20260506222440 | 13 | 317 | 14.5 | 17.7 | 0.00 | 0.00 | 0.00 | 60 | 1005.0 |
| 20260506220940 | 13 | 257 | 3.2 | 4.8 | 0.00 | 0.00 | 0.00 | 55 | 1004.8 |
| 20260506220440 | 13 | 257 | 6.4 | 14.5 | 0.00 | 0.00 | 0.00 | 57 | 1004.8 |
| 20260506215940 | 13 | 164 | 9.7 | 11.3 | 0.00 | 0.00 | 0.00 | 57 | 1004.8 |
| 20260506215440 | 13 | 163 | 6.4 | 9.7 | 0.00 | 0.00 | 0.00 | 56 | 1004.8 |
| 20260506214940 | 13 | 164 | 11.3 | 16.1 | 0.00 | 0.00 | 0.00 | 57 | 1004.7 |
| 20260506214440 | 13 | 164 | 16.1 | 17.7 | 0.00 | 0.00 | 0.00 | 57 | 1004.7 |
| 20260506212440 | 14 | 136 | 12.9 | 19.3 | 0.00 | 0.00 | 0.00 | 57 | 1004.4 |
| 20260506211940 | 14 | 147 | 12.9 | 14.5 | 0.00 | 0.00 | 0.00 | 56 | 1004.4 |
| 20260506211440 | 14 | 149 | 11.3 | 12.9 | 0.00 | 0.00 | 0.00 | 55 | 1004.3 |
| 20260506210941 | 14 | 133 | 11.3 | 17.7 | 0.00 | 0.00 | 0.00 | 55 | 1004.1 |
| 20260506205940 | 14 | 128 | 16.1 | 17.7 | 0.00 | 0.00 | 0.00 | 56 | 1004.0 |
| 20260506205440 | 15 | 123 | 14.5 | 17.7 | 0.00 | 0.00 | 0.00 | 56 | 1003.9 |
| 20260506204940 | 15 | 126 | 14.5 | 19.3 | 0.00 | 0.00 | 0.00 | 56 | 1003.9 |
| 20260506203940 | 15 | 122 | 16.1 | 20.9 | 0.00 | 0.00 | 0.00 | 55 | 1003.9 |
| 20260506203440 | 15 | 120 | 17.7 | 19.3 | 0.00 | 0.00 | 0.00 | 54 | 1003.9 |
| 20260506202940 | 15 | 121 | 17.7 | 20.9 | 0.00 | 0.00 | 0.00 | 54 | 1003.9 |
| 20260506202440 | 15 | 129 | 17.7 | 20.9 | 0.00 | 0.00 | 0.00 | 54 | 1003.9 |
| 20260506200940 | 15 | 133 | 17.7 | 20.9 | 0.00 | 0.00 | 0.00 | 53 | 1004.0 |
| 20260506200440 | 15 | 129 | 17.7 | 20.9 | 0.00 | 0.00 | 0.00 | 53 | 1004.0 |
| 20260506195440 | 15 | 137 | 17.7 | 20.9 | 0.00 | 0.00 | 0.00 | 52 | 1003.9 |
| 20260506194940 | 15 | 132 | 14.5 | 17.7 | 0.00 | 0.00 | 0.00 | 52 | 1004.0 |
| 20260506193940 | 16 | 127 | 16.1 | 19.3 | 0.00 | 0.00 | 0.00 | 50 | 1003.8 |
| 20260506192440 | 16 | 125 | 16.1 | 17.7 | 0.00 | 0.00 | 0.00 | 49 | 1003.6 |
| 20260506191940 | 16 | 121 | 14.5 | 22.5 | 0.00 | 0.00 | 0.00 | 48 | 1003.5 |
| 20260506190940 | 16 | 126 | 17.7 | 20.9 | 0.00 | 0.00 | 0.00 | 48 | 1003.6 |
| 20260506190440 | 16 | 142 | 16.1 | 17.7 | 0.00 | 0.00 | 0.00 | 48 | 1003.6 |
| 20260506185940 | 16 | 129 | 17.7 | 19.3 | 0.00 | 0.00 | 0.00 | 48 | 1003.5 |
| 20260506184940 | 16 | 130 | 17.7 | 22.5 | 0.00 | 0.00 | 0.00 | 48 | 1003.3 |
| 20260506183940 | 16 | 136 | 16.1 | 27.4 | 0.00 | 0.00 | 0.00 | 48 | 1003.3 |
| 20260506183440 | 16 | 131 | 22.5 | 24.1 | 0.00 | 0.00 | 0.00 | 47 | 1003.3 |
| 20260506182940 | 16 | 127 | 16.1 | 20.9 | 0.00 | 0.00 | 0.00 | 47 | 1003.4 |
| 20260506182440 | 17 | 124 | 12.9 | 19.3 | 0.00 | 0.00 | 0.00 | 46 | 1003.5 |
| 20260506181940 | 17 | 125 | 14.5 | 16.1 | 0.00 | 0.00 | 0.00 | 46 | 1003.4 |
| 20260506181440 | 17 | 123 | 16.1 | 17.7 | 0.00 | 0.00 | 0.00 | 45 | 1003.4 |
| 20260506180940 | 17 | 126 | 17.7 | 22.5 | 0.00 | 0.00 | 0.00 | 45 | 1003.3 |
| 20260506180440 | 17 | 126 | 17.7 | 20.9 | 0.00 | 0.00 | 0.00 | 45 | 1003.3 |
| 20260506175440 | 17 | 132 | 20.9 | 24.1 | 0.00 | 0.00 | 0.00 | 45 | 1003.1 |
| 20260506173440 | 17 | 130 | 24.1 | 29.0 | 0.00 | 0.00 | 0.00 | 44 | 1003.2 |
| 20260506172940 | 17 | 135 | 24.1 | 25.7 | 0.00 | 0.00 | 0.00 | 44 | 1003.2 |
| 20260506172440 | 17 | 131 | 25.7 | 27.4 | 0.00 | 0.00 | 0.00 | 43 | 1003.2 |
| 20260506171940 | 17 | 139 | 25.7 | 27.4 | 0.00 | 0.00 | 0.00 | 43 | 1003.2 |
| 20260506171440 | 18 | 136 | 24.1 | 27.4 | 0.00 | 0.00 | 0.00 | 43 | 1003.2 |
| 20260506170440 | 18 | 129 | 24.1 | 25.7 | 0.00 | 0.00 | 0.00 | 42 | 1003.2 |
| 20260506164940 | 18 | 137 | 27.4 | 40.2 | 0.00 | 0.00 | 0.00 | 40 | 1003.4 |
| 20260506164440 | 19 | 138 | 24.1 | 27.4 | 0.00 | 0.00 | 0.00 | 40 | 1003.4 |
| 20260506163440 | 19 | 149 | 20.9 | 24.1 | 0.00 | 0.00 | 0.00 | 39 | 1003.4 |
| 20260506162940 | 19 | 140 | 22.5 | 30.6 | 0.00 | 0.00 | 0.00 | 38 | 1003.4 |
| 20260506161940 | 20 | 151 | 19.3 | 24.1 | 0.00 | 0.00 | 0.00 | 39 | 1003.5 |
| 20260506161440 | 20 | 128 | 29.0 | 33.8 | 0.00 | 0.00 | 0.00 | 38 | 1003.6 |
| 20260506160940 | 20 | 129 | 24.1 | 27.4 | 0.00 | 0.00 | 0.00 | 39 | 1003.6 |
| 20260506160440 | 19 | 141 | 20.9 | 24.1 | 0.00 | 0.00 | 0.00 | 39 | 1003.6 |
| 20260506154940 | 19 | 130 | 25.7 | 30.6 | 0.00 | 0.00 | 0.00 | 39 | 1003.9 |
| 20260506154440 | 19 | 126 | 30.6 | 33.8 | 0.00 | 0.00 | 0.00 | 39 | 1004.0 |
| 20260506153940 | 19 | 140 | 27.4 | 29.0 | 0.00 | 0.00 | 0.00 | 40 | 1004.1 |
| 20260506152940 | 18 | 130 | 22.5 | 30.6 | 0.00 | 0.00 | 0.00 | 41 | 1004.4 |
| 20260506150940 | 20 | 147 | 19.3 | 25.7 | 0.00 | 0.00 | 0.00 | 39 | 1004.4 |
| 20260506150440 | 19 | 166 | 27.4 | 30.6 | 0.00 | 0.00 | 0.00 | 38 | 1004.4 |
| 20260506144944 | 20 | 143 | 22.5 | 29.0 | 0.00 | 0.00 | 0.00 | 39 | 1004.7 |
| 20260506142940 | 21 | 154 | 19.3 | 29.0 | 0.00 | 0.00 | 0.00 | 37 | 1004.8 |
| 20260506142440 | 20 | 144 | 19.3 | 27.4 | 0.00 | 0.00 | 0.00 | 39 | 1004.9 |
| 20260506141941 | 20 | 155 | 25.7 | 27.4 | 0.00 | 0.00 | 0.00 | 37 | 1004.9 |
| 20260506141440 | 20 | 158 | 20.9 | 30.6 | 0.00 | 0.00 | 0.00 | 39 | 1004.9 |
| 20260506140940 | 20 | 160 | 24.1 | 25.7 | 0.00 | 0.00 | 0.00 | 39 | 1005.0 |
| 20260506140440 | 19 | 150 | 19.3 | 27.4 | 0.00 | 0.00 | 0.00 | 41 | 1005.1 |
| 20260506133940 | 18 | 142 | 20.9 | 24.1 | 0.00 | 0.00 | 0.00 | 41 | 1005.5 |
| 20260506131940 | 20 | 146 | 17.7 | 19.3 | 0.00 | 0.00 | 0.00 | 40 | 1005.7 |
| 20260506131440 | 20 | 143 | 14.5 | 19.3 | 0.00 | 0.00 | 0.00 | 40 | 1005.8 |
| 20260506130940 | 20 | 147 | 12.9 | 19.3 | 0.00 | 0.00 | 0.00 | 40 | 1005.8 |
| 20260506125940 | 19 | 156 | 14.5 | 20.9 | 0.00 | 0.00 | 0.00 | 40 | 1006.0 |
| 20260506123940 | 20 | 157 | 17.7 | 20.9 | 0.00 | 0.00 | 0.00 | 37 | 1006.2 |
| 20260506123440 | 21 | 132 | 22.5 | 27.4 | 0.00 | 0.00 | 0.00 | 37 | 1006.2 |
| 20260506122940 | 21 | 173 | 17.7 | 20.9 | 0.00 | 0.00 | 0.00 | 37 | 1006.2 |
| 20260506122440 | 21 | 161 | 20.9 | 29.0 | 0.00 | 0.00 | 0.00 | 37 | 1006.2 |
| 20260506120940 | 21 | 176 | 17.7 | 29.0 | 0.00 | 0.00 | 0.00 | 36 | 1006.3 |
| 20260506120440 | 21 | 155 | 20.9 | 22.5 | 0.00 | 0.00 | 0.00 | 35 | 1006.3 |
| 20260506114940 | 20 | 170 | 14.5 | 20.9 | 0.00 | 0.00 | 0.00 | 38 | 1006.5 |
| 20260506114440 | 20 | 148 | 14.5 | 17.7 | 0.00 | 0.00 | 0.00 | 39 | 1006.5 |
| 20260506113440 | 20 | 159 | 11.3 | 16.1 | 0.00 | 0.00 | 0.00 | 38 | 1006.5 |
| 20260506112940 | 20 | 130 | 12.9 | 17.7 | 0.00 | 0.00 | 0.00 | 38 | 1006.5 |
| 20260506112440 | 20 | 136 | 14.5 | 19.3 | 0.00 | 0.00 | 0.00 | 39 | 1006.5 |
| 20260506110940 | 20 | 140 | 14.5 | 17.7 | 0.00 | 0.00 | 0.00 | 40 | 1006.7 |
| 20260506110440 | 20 | 163 | 12.9 | 16.1 | 0.00 | 0.00 | 0.00 | 38 | 1006.8 |
| 20260506105940 | 20 | 161 | 17.7 | 22.5 | 0.00 | 0.00 | 0.00 | 38 | 1006.7 |
| 20260506104440 | 21 | 151 | 16.1 | 20.9 | 0.00 | 0.00 | 0.00 | 36 | 1006.8 |
| 20260506103943 | 21 | 136 | 6.4 | 8.0 | 0.00 | 0.00 | 0.00 | 37 | 1006.9 |
| 20260506103440 | 21 | 181 | 16.1 | 20.9 | 0.00 | 0.00 | 0.00 | 39 | 1006.9 |
| 20260506102940 | 21 | 157 | 14.5 | 17.7 | 0.00 | 0.00 | 0.00 | 39 | 1007.0 |
| 20260506102440 | 21 | 165 | 14.5 | 17.7 | 0.00 | 0.00 | 0.00 | 37 | 1007.1 |
| 20260506101940 | 21 | 158 | 11.3 | 16.1 | 0.00 | 0.00 | 0.00 | 38 | 1007.1 |
| 20260506100440 | 22 | 181 | 12.9 | 22.5 | 0.00 | 0.00 | 0.00 | 38 | 1007.2 |
| 20260506095940 | 22 | 151 | 14.5 | 17.7 | 0.00 | 0.00 | 0.00 | 38 | 1007.3 |
| 20260506095440 | 21 | 179 | 11.3 | 16.1 | 0.00 | 0.00 | 0.00 | 37 | 1007.3 |
| 20260506094940 | 21 | 198 | 11.3 | 14.5 | 0.00 | 0.00 | 0.00 | 39 | 1007.3 |
| 20260506093440 | 20 | 174 | 11.3 | 17.7 | 0.00 | 0.00 | 0.00 | 38 | 1007.3 |
| 20260506091940 | 21 | 191 | 9.7 | 11.3 | 0.00 | 0.00 | 0.00 | 38 | 1007.3 |
| 20260506090941 | 21 | 161 | 14.5 | 17.7 | 0.00 | 0.00 | 0.00 | 40 | 1007.3 |
| 20260506090440 | 21 | 224 | 9.7 | 12.9 | 0.00 | 0.00 | 0.00 | 38 | 1007.3 |
| 20260506085940 | 21 | 251 | 11.3 | 14.5 | 0.00 | 0.00 | 0.00 | 39 | 1007.3 |
| 20260506084440 | 20 | 167 | 17.7 | 20.9 | 0.00 | 0.00 | 0.00 | 38 | 1007.3 |
| 20260506083940 | 20 | 146 | 6.4 | 8.0 | 0.00 | 0.00 | 0.00 | 40 | 1007.3 |
| 20260506083440 | 21 | 147 | 14.5 | 14.5 | 0.00 | 0.00 | 0.00 | 41 | 1007.4 |
| 20260506082940 | 21 | 164 | 12.9 | 17.7 | 0.00 | 0.00 | 0.00 | 41 | 1007.4 |
| 20260506082440 | 21 | 175 | 8.0 | 14.5 | 0.00 | 0.00 | 0.00 | 38 | 1007.5 |
| 20260506081940 | 21 | 197 | 11.3 | 14.5 | 0.00 | 0.00 | 0.00 | 38 | 1007.5 |
| 20260506081440 | 21 | 225 | 11.3 | 16.1 | 0.00 | 0.00 | 0.00 | 39 | 1007.5 |
| 20260506080940 | 21 | 176 | 6.4 | 11.3 | 0.00 | 0.00 | 0.00 | 40 | 1007.5 |
| 20260506080440 | 22 | 175 | 14.5 | 16.1 | 0.00 | 0.00 | 0.00 | 39 | 1007.5 |
| 20260506073440 | 21 | 252 | 4.8 | 11.3 | 0.00 | 0.00 | 0.00 | 40 | 1007.4 |
| 20260506072940 | 21 | 256 | 6.4 | 8.0 | 0.00 | 0.00 | 0.00 | 41 | 1007.5 |
| 20260506071940 | 21 | 288 | 8.0 | 9.7 | 0.00 | 0.00 | 0.00 | 42 | 1007.6 |
| 20260506071440 | 20 | 288 | 11.3 | 14.5 | 0.00 | 0.00 | 0.00 | 42 | 1007.6 |
| 20260506070940 | 20 | 276 | 8.0 | 9.7 | 0.00 | 0.00 | 0.00 | 42 | 1007.5 |
| 20260506070440 | 20 | 282 | 9.7 | 14.5 | 0.00 | 0.00 | 0.00 | 42 | 1007.5 |
| 20260506062445 | 19 | 255 | 6.4 | 8.0 | 0.00 | 0.00 | 0.00 | 46 | 1007.4 |
| 20260506061940 | 19 | 277 | 4.8 | 8.0 | 0.00 | 0.00 | 0.00 | 48 | 1007.5 |
| 20260506061440 | 18 | 256 | 8.0 | 11.3 | 0.00 | 0.00 | 0.00 | 47 | 1007.5 |
| 20260506060940 | 18 | 254 | 6.4 | 8.0 | 0.00 | 0.00 | 0.00 | 48 | 1007.4 |
| 20260506050940 | 15 | 210 | 6.4 | 9.7 | 0.00 | 0.00 | 0.00 | 61 | 1007.2 |
| 20260506050440 | 14 | 210 | 8.0 | 9.7 | 0.00 | 0.00 | 0.00 | 62 | 1007.2 |
| 20260506044940 | 15 | 240 | 6.4 | 8.0 | 0.00 | 0.00 | 0.00 | 61 | 1006.9 |
| 20260506044440 | 14 | 241 | 6.4 | 8.0 | 0.00 | 0.00 | 0.00 | 62 | 1006.8 |
| 20260506043940 | 14 | 241 | 9.7 | 11.3 | 0.00 | 0.00 | 0.00 | 62 | 1006.8 |
| 20260506043440 | 13 | 273 | 6.4 | 9.7 | 0.00 | 0.00 | 0.00 | 65 | 1006.8 |
| 20260506042940 | 13 | 278 | 8.0 | 9.7 | 0.00 | 0.00 | 0.00 | 67 | 1006.8 |
| 20260506042440 | 11 | 290 | 8.0 | 9.7 | 0.00 | 0.00 | 0.00 | 69 | 1006.7 |
| 20260506041440 | 10 | 298 | 3.2 | 6.4 | 0.00 | 0.00 | 0.00 | 69 | 1006.7 |
| 20260506040440 | 10 | 298 | 3.2 | 4.8 | 0.00 | 0.00 | 0.00 | 71 | 1006.6 |
| 20260506035940 | 10 | 298 | 4.8 | 4.8 | 0.00 | 0.00 | 0.00 | 71 | 1006.5 |